This page will auto refresh every 5 minutes.
Stop auto refresh| Refresh Now

Currently Fair Skies
 
  Current Hour mean
High/Low
Day
High/Low
Temperature °F 25.8° (-3.4°C)
↓ -0.8°/hr
26.2°
26.6°/25.8°
26.6°/17.5°
Dew Point °F 4.2° (-15.4 °C)
↓ -1.8°/hr
4.7°
5.3 °/3.7 °
13.4°/3.7°
Humidity 39%
↓ -2%/hr
39.1%
40%/38%
62%/38%
Wind Gust (mph) SSE 0 (0 kph) W @ 9/W @ 0 W @ 16/W @ 0
Wind Speed (mph)
Beaufort Scale
W 2 (3 kph) ↓
Light air (1)
W @ 4/WNW @ 0 W @ 6/S @ 0
Sunshine (W/m2) 9
↓ -54 /hr
16.2
40/9
288 @ 12:54 PM
Precipitation 0.00"(0.00 mm) 1
(Past 24 hours: 0.01")
0.00"/hr2
0.00"/0.00"/hr2
0.00"/0.00"/hr2
Barometer
Rising
29.495" (998.8mb)
↑ 0.021"/hr
29.488"
29.495"/29.476"
29.495"/29.387"
Wind Chill Gust °F 26° (-3°C) 24.6°
27°/17°
27°/
Wind Chill Avg °F 24° (-4°C) 24.6°
27°/21°
27°/
UV Index 0.0 0.00
0.0/0.0
0.0/0.0
1 Total rainfall.
2 Instantaneous rainfall rate.

 

Wind Distribution (Past 2 hours)

2 Hour Wind Compass Rose

 

Calculated Parameters

Wet Bulb  20.5°F
Temperature-Humidity Index  32.2°F
Equilibrium Moisture Content  8.09 %
Mixing Ratio  1.17 g/kg
Saturated Mixing Ratio  3.01 g/kg
Air Density  1.290 kg/m3
Density Altitude  -1218 ft
Estimated Potential Cloud Base  4853 ft
Chandler Burning Index
Today
Month
 
 9.7 (LW)
 223.2 (EX )

 

METAR

METAR NONE 132050Z AUTO 29002KT M03/M15 A2950 RMK AO1 SLP988 T10341154 

2093, 0.0018